Time,TemperatureF,DewpointF,PressureIn,WindDirection,WindDirectionDegrees,WindSpeedMPH,WindSpeedGustMPH,Humidity,HourlyPrecipIn,Conditions,Clouds,dailyrainin,SolarRadiationWatts/m^2,SoftwareType,DateUTC
2013-07-16 00:05:00,75.7,71.6,22.93,SSE,148,2.0,3.0,87,0.00,,,0.00,0,Wunderground v.1.15,2013-07-16 05:05:00,
2013-07-16 00:10:00,75.6,71.5,22.93,SE,138,3.0,3.0,87,0.00,,,0.00,0,Wunderground v.1.15,2013-07-16 05:10:00,
2013-07-16 00:20:00,75.7,71.6,22.93,SSE,151,3.0,3.0,87,0.00,,,0.00,0,Wunderground v.1.15,2013-07-16 05:20:00,
2013-07-16 00:30:00,75.7,71.6,22.93,SSE,148,3.0,3.0,87,0.00,,,0.00,0,Wunderground v.1.15,2013-07-16 05:30:00,
2013-07-16 00:40:00,75.6,71.5,22.93,SE,144,3.0,3.0,87,0.00,,,0.00,0,Wunderground v.1.15,2013-07-16 05:40:00,
2013-07-16 00:45:00,75.5,71.4,18.17,SSE,154,1.0,3.0,87,0.00,,,0.00,0,Wunderground v.1.15,2013-07-16 05:45:00,
2013-07-16 00:55:00,75.4,71.3,21.58,SE,142,1.0,2.0,87,0.00,,,0.00,0,Wunderground v.1.15,2013-07-16 05:55:00,
2013-07-16 01:00:00,75.3,71.2,21.58,SE,146,1.0,1.0,87,0.00,,,0.00,0,Wunderground v.1.15,2013-07-16 06:00:00,
2013-07-16 01:10:00,75.2,71.4,21.58,SE,138,1.0,2.0,88,0.00,,,0.00,0,Wunderground v.1.15,2013-07-16 06:10:00,
2013-07-16 01:20:00,75.1,71.3,21.58,SSE,147,2.0,2.0,88,0.00,,,0.00,0,Wunderground v.1.15,2013-07-16 06:20:00,
2013-07-16 01:25:00,75.1,71.3,21.58,South,180,1.0,3.0,88,0.00,,,0.00,0,Wunderground v.1.15,2013-07-16 06:25:00,
2013-07-16 01:35:00,74.9,71.1,19.29,SSE,150,1.0,1.0,88,0.00,,,0.00,0,Wunderground v.1.15,2013-07-16 06:35:00,
2013-07-16 01:45:00,74.8,71.0,19.29,SSE,148,1.0,2.0,88,0.00,,,0.00,0,Wunderground v.1.15,2013-07-16 06:45:00,
2013-07-16 01:55:00,74.8,71.0,19.29,SSE,154,2.0,2.0,88,0.00,,,0.00,0,Wunderground v.1.15,2013-07-16 06:55:00,
2013-07-16 02:00:00,74.9,71.1,19.29,SSE,150,2.0,2.0,88,0.00,,,0.00,0,Wunderground v.1.15,2013-07-16 07:00:00,
2013-07-16 02:05:00,74.9,71.1,19.29,SSE,163,2.0,2.0,88,0.00,,,0.00,0,Wunderground v.1.15,2013-07-16 07:05:00,
2013-07-16 02:15:00,74.8,71.0,21.82,South,169,0.0,1.0,88,0.00,,,0.00,0,Wunderground v.1.15,2013-07-16 07:15:00,
2013-07-16 02:25:00,74.7,70.9,21.82,SSE,157,0.0,1.0,88,0.00,,,0.00,0,Wunderground v.1.15,2013-07-16 07:25:00,
2013-07-16 02:30:00,74.6,70.8,21.82,SSE,148,1.0,1.0,88,0.00,,,0.00,0,Wunderground v.1.15,2013-07-16 07:30:00,
2013-07-16 02:40:00,74.5,70.7,21.82,SSE,159,1.0,1.0,88,0.00,,,0.00,0,Wunderground v.1.15,2013-07-16 07:40:00,
2013-07-16 02:45:00,74.5,70.7,21.82,SE,145,1.0,1.0,88,0.00,,,0.00,0,Wunderground v.1.15,2013-07-16 07:45:00,
2013-07-16 02:55:00,74.3,70.8,21.82,SE,146,1.0,2.0,89,0.00,,,0.00,0,Wunderground v.1.15,2013-07-16 07:55:00,
2013-07-16 03:05:00,74.2,70.7,21.82,SE,146,0.0,1.0,89,0.00,,,0.00,0,Wunderground v.1.15,2013-07-16 08:05:00,
2013-07-16 03:15:00,74.0,70.6,21.82,SE,146,0.0,0.0,89,0.00,,,0.00,0,Wunderground v.1.15,2013-07-16 08:15:00,
2013-07-16 03:20:00,73.9,70.5,21.82,SE,146,0.0,0.0,89,0.00,,,0.00,0,Wunderground v.1.15,2013-07-16 08:20:00,
2013-07-16 03:35:00,73.7,70.6,21.82,SE,146,1.0,2.0,90,0.00,,,0.00,0,Wunderground v.1.15,2013-07-16 08:35:00,
2013-07-16 03:45:00,73.6,70.8,21.82,SE,146,1.0,2.0,91,0.00,,,0.00,0,Wunderground v.1.15,2013-07-16 08:45:00,
2013-07-16 03:55:00,73.5,70.7,21.82,SE,146,0.0,0.0,91,0.00,,,0.00,0,Wunderground v.1.15,2013-07-16 08:55:00,
2013-07-16 04:05:00,73.3,70.2,21.82,SE,146,0.0,0.0,90,0.00,,,0.00,0,Wunderground v.1.15,2013-07-16 09:05:00,
2013-07-16 04:15:00,73.1,70.3,21.82,SE,146,0.0,0.0,91,0.00,,,0.00,0,Wunderground v.1.15,2013-07-16 09:15:00,
2013-07-16 04:20:00,73.0,70.2,21.82,SE,146,0.0,0.0,91,0.00,,,0.00,0,Wunderground v.1.15,2013-07-16 09:20:00,
2013-07-16 04:30:00,72.9,70.4,21.82,SE,146,0.0,0.0,92,0.00,,,0.00,0,Wunderground v.1.15,2013-07-16 09:30:00,
2013-07-16 04:40:00,72.7,70.2,21.82,SE,146,0.0,1.0,92,0.00,,,0.00,0,Wunderground v.1.15,2013-07-16 09:40:00,
2013-07-16 04:45:00,72.7,70.2,21.82,SE,146,0.0,1.0,92,0.00,,,0.00,0,Wunderground v.1.15,2013-07-16 09:45:00,
2013-07-16 04:55:00,72.5,70.0,21.82,SE,132,0.0,1.0,92,0.00,,,0.00,0,Wunderground v.1.15,2013-07-16 09:55:00,
2013-07-16 05:00:00,72.4,70.3,21.82,SE,132,0.0,0.0,93,0.00,,,0.00,0,Wunderground v.1.15,2013-07-16 10:00:00,
2013-07-16 05:10:00,72.4,70.3,21.82,SE,144,2.0,2.0,93,0.00,,,0.00,0,Wunderground v.1.15,2013-07-16 10:10:00,
2013-07-16 05:15:00,72.4,70.3,21.82,SE,132,2.0,2.0,93,0.00,,,0.00,0,Wunderground v.1.15,2013-07-16 10:15:00,
2013-07-16 05:25:00,72.3,70.2,21.82,SE,140,1.0,2.0,93,0.00,,,0.00,0,Wunderground v.1.15,2013-07-16 10:25:00,
2013-07-16 05:30:00,72.3,70.2,21.82,SE,141,1.0,1.0,93,0.00,,,0.00,0,Wunderground v.1.15,2013-07-16 10:30:00,
2013-07-16 05:40:00,72.2,70.4,21.82,SSE,148,1.0,1.0,94,0.00,,,0.00,0,Wunderground v.1.15,2013-07-16 10:40:00,
2013-07-16 05:50:00,72.1,70.3,21.82,SSE,156,2.0,2.0,94,0.00,,,0.00,0,Wunderground v.1.15,2013-07-16 10:50:00,
2013-07-16 05:55:00,72.1,70.3,21.82,SSE,147,2.0,2.0,94,0.00,,,0.00,0,Wunderground v.1.15,2013-07-16 10:55:00,
2013-07-16 06:05:00,72.1,70.0,21.82,SSE,158,2.0,2.0,93,0.00,,,0.00,0,Wunderground v.1.15,2013-07-16 11:05:00,
2013-07-16 06:10:00,72.1,70.0,20.07,SSE,157,2.0,2.0,93,0.00,,,0.00,5,Wunderground v.1.15,2013-07-16 11:10:00,
2013-07-16 06:20:00,72.1,70.0,20.07,SE,140,2.0,2.0,93,0.00,,,0.00,9,Wunderground v.1.15,2013-07-16 11:20:00,
2013-07-16 06:30:00,72.1,70.0,20.07,SSE,147,1.0,2.0,93,0.00,,,0.00,28,Wunderground v.1.15,2013-07-16 11:30:00,
2013-07-16 06:35:00,72.2,70.1,20.07,SSE,154,2.0,2.0,93,0.00,,,0.00,39,Wunderground v.1.15,2013-07-16 11:35:00,
2013-07-16 06:45:00,72.4,70.3,20.07,SSE,153,1.0,2.0,93,0.00,,,0.00,60,Wunderground v.1.15,2013-07-16 11:45:00,
2013-07-16 06:50:00,72.6,70.5,20.07,SSE,155,1.0,1.0,93,0.00,,,0.00,72,Wunderground v.1.15,2013-07-16 11:50:00,
2013-07-16 07:00:00,72.9,70.4,20.07,SE,137,2.0,3.0,92,0.00,,,0.00,76,Wunderground v.1.15,2013-07-16 12:00:00,
2013-07-16 07:10:00,73.4,70.9,20.07,SE,142,1.0,4.0,92,0.00,,,0.00,113,Wunderground v.1.15,2013-07-16 12:10:00,
2013-07-16 07:15:00,73.7,70.9,20.07,SE,146,2.0,7.0,91,0.00,,,0.00,128,Wunderground v.1.15,2013-07-16 12:15:00,
2013-07-16 07:25:00,74.1,71.0,20.07,SE,138,3.0,3.0,90,0.00,,,0.00,113,Wunderground v.1.15,2013-07-16 12:25:00,
2013-07-16 07:35:00,74.4,71.3,22.34,SSE,156,1.0,2.0,90,0.00,,,0.00,47,Wunderground v.1.15,2013-07-16 12:35:00,
2013-07-16 07:40:00,74.4,71.3,22.34,SSE,151,1.0,1.0,90,0.00,,,0.00,74,Wunderground v.1.15,2013-07-16 12:40:00,
2013-07-16 07:50:00,74.7,71.2,22.34,SE,132,2.0,4.0,89,0.00,,,0.00,60,Wunderground v.1.15,2013-07-16 12:50:00,
2013-07-16 08:00:00,75.4,71.9,22.34,SSW,194,3.0,3.0,89,0.00,,,0.00,220,Wunderground v.1.15,2013-07-16 13:00:00,
2013-07-16 08:05:00,75.7,71.9,22.34,SE,140,4.0,4.0,88,0.00,,,0.00,232,Wunderground v.1.15,2013-07-16 13:05:00,
2013-07-16 08:10:00,76.0,71.8,22.34,SE,140,4.0,7.0,87,0.00,,,0.00,246,Wunderground v.1.15,2013-07-16 13:10:00,
2013-07-16 08:20:00,76.7,72.2,20.39,SSE,159,3.0,4.0,86,0.00,,,0.00,258,Wunderground v.1.15,2013-07-16 13:20:00,
2013-07-16 08:30:00,77.6,72.7,20.39,South,174,2.0,3.0,85,0.00,,,0.00,290,Wunderground v.1.15,2013-07-16 13:30:00,
2013-07-16 08:40:00,78.6,73.0,20.39,SSE,167,3.0,3.0,83,0.00,,,0.00,309,Wunderground v.1.15,2013-07-16 13:40:00,
2013-07-16 08:45:00,79.0,73.0,20.39,SE,145,3.0,5.0,82,0.00,,,0.00,323,Wunderground v.1.15,2013-07-16 13:45:00,
2013-07-16 08:55:00,79.9,73.5,23.53,SSW,196,3.0,3.0,81,0.00,,,0.00,346,Wunderground v.1.15,2013-07-16 13:55:00,
2013-07-16 09:05:00,80.9,73.8,21.90,SSW,204,3.0,3.0,79,0.00,,,0.00,366,Wunderground v.1.15,2013-07-16 14:05:00,
2013-07-16 09:10:00,81.1,74.0,21.90,SW,221,3.0,5.0,79,0.00,,,0.00,378,Wunderground v.1.15,2013-07-16 14:10:00,
2013-07-16 09:20:00,81.7,73.4,21.90,SW,219,5.0,5.0,76,0.00,,,0.00,397,Wunderground v.1.15,2013-07-16 14:20:00,
2013-07-16 09:25:00,81.6,73.7,21.90,SSW,207,4.0,5.0,77,0.00,,,0.00,410,Wunderground v.1.15,2013-07-16 14:25:00,
2013-07-16 09:35:00,82.1,73.4,21.90,SW,216,2.0,3.0,75,0.00,,,0.00,432,Wunderground v.1.15,2013-07-16 14:35:00,
2013-07-16 09:40:00,82.6,73.9,21.90,SSW,211,2.0,2.0,75,0.00,,,0.00,445,Wunderground v.1.15,2013-07-16 14:40:00,
2013-07-16 09:50:00,82.9,73.4,21.90,SSW,206,4.0,5.0,73,0.00,,,0.00,462,Wunderground v.1.15,2013-07-16 14:50:00,
2013-07-16 10:00:00,83.4,73.8,23.46,SSW,195,3.0,3.0,73,0.00,,,0.00,480,Wunderground v.1.15,2013-07-16 15:00:00,
2013-07-16 10:05:00,83.4,73.4,23.46,South,179,3.0,3.0,72,0.00,,,0.00,503,Wunderground v.1.15,2013-07-16 15:05:00,
2013-07-16 10:15:00,83.8,74.2,23.46,SW,228,3.0,3.0,73,0.00,,,0.00,517,Wunderground v.1.15,2013-07-16 15:15:00,
2013-07-16 10:25:00,85.0,74.5,23.46,SW,232,3.0,9.0,71,0.00,,,0.00,538,Wunderground v.1.15,2013-07-16 15:25:00,
2013-07-16 10:30:00,85.5,74.6,24.75,WSW,240,3.0,5.0,70,0.00,,,0.00,563,Wunderground v.1.15,2013-07-16 15:30:00,
2013-07-16 10:40:00,86.0,73.8,24.75,SW,233,4.0,5.0,67,0.00,,,0.00,566,Wunderground v.1.15,2013-07-16 15:40:00,
2013-07-16 10:45:00,86.0,74.2,24.75,SSW,207,4.0,6.0,68,0.00,,,0.00,563,Wunderground v.1.15,2013-07-16 15:45:00,
2013-07-16 10:55:00,86.3,74.0,23.56,SW,232,3.0,4.0,67,0.00,,,0.00,591,Wunderground v.1.15,2013-07-16 15:55:00,
2013-07-16 11:05:00,86.5,73.8,23.56,SSE,152,1.0,5.0,66,0.00,,,0.00,615,Wunderground v.1.15,2013-07-16 16:05:00,
2013-07-16 11:10:00,87.0,74.3,23.56,SW,226,3.0,3.0,66,0.00,,,0.00,628,Wunderground v.1.15,2013-07-16 16:10:00,
2013-07-16 11:20:00,86.3,73.6,23.56,SE,135,2.0,3.0,66,0.00,,,0.00,622,Wunderground v.1.15,2013-07-16 16:20:00,
2013-07-16 11:25:00,86.3,74.0,23.56,SSW,211,2.0,4.0,67,0.00,,,0.00,643,Wunderground v.1.15,2013-07-16 16:25:00,
2013-07-16 11:35:00,87.8,74.1,23.56,SSW,207,4.0,8.0,64,0.00,,,0.00,657,Wunderground v.1.15,2013-07-16 16:35:00,
2013-07-16 11:45:00,87.3,73.6,23.56,SSW,201,4.0,5.0,64,0.00,,,0.00,613,Wunderground v.1.15,2013-07-16 16:45:00,
2013-07-16 11:50:00,87.2,73.5,23.56,SSW,211,4.0,4.0,64,0.00,,,0.00,705,Wunderground v.1.15,2013-07-16 16:50:00,
2013-07-16 12:00:00,88.7,73.5,23.56,SSW,212,3.0,6.0,61,0.00,,,0.00,700,Wunderground v.1.15,2013-07-16 17:00:00,
2013-07-16 12:05:00,88.5,73.3,23.56,SSW,207,3.0,6.0,61,0.00,,,0.00,151,Wunderground v.1.15,2013-07-16 17:05:00,
2013-07-16 12:15:00,88.2,73.5,23.56,WSW,256,4.0,8.0,62,0.00,,,0.00,742,Wunderground v.1.15,2013-07-16 17:15:00,
2013-07-16 12:25:00,90.0,73.2,23.56,SW,221,3.0,8.0,58,0.00,,,0.00,759,Wunderground v.1.15,2013-07-16 17:25:00,
2013-07-16 12:35:00,89.1,71.9,23.56,SE,132,3.0,4.0,57,0.00,,,0.00,135,Wunderground v.1.15,2013-07-16 17:35:00,
2013-07-16 12:45:00,87.7,73.1,23.56,South,171,1.0,3.0,62,0.00,,,0.00,167,Wunderground v.1.15,2013-07-16 17:45:00,
2013-07-16 12:50:00,87.7,72.1,23.56,SSW,211,2.0,2.0,60,0.00,,,0.00,148,Wunderground v.1.15,2013-07-16 17:50:00,
2013-07-16 13:00:00,87.4,71.8,23.56,SW,214,2.0,2.0,60,0.00,,,0.00,777,Wunderground v.1.15,2013-07-16 18:00:00,
2013-07-16 13:10:00,88.4,72.2,23.56,SW,215,1.0,1.0,59,0.00,,,0.00,765,Wunderground v.1.15,2013-07-16 18:10:00,
2013-07-16 13:15:00,90.2,71.8,23.56,SW,220,2.0,4.0,55,0.00,,,0.00,770,Wunderground v.1.15,2013-07-16 18:15:00,
2013-07-16 13:25:00,90.9,72.5,22.51,SSW,208,4.0,4.0,55,0.00,,,0.00,729,Wunderground v.1.15,2013-07-16 18:25:00,
2013-07-16 13:30:00,91.4,71.9,22.51,West,281,3.0,3.0,53,0.00,,,0.00,763,Wunderground v.1.15,2013-07-16 18:30:00,
2013-07-16 13:40:00,90.9,70.3,22.51,SSW,210,2.0,2.0,51,0.00,,,0.00,687,Wunderground v.1.15,2013-07-16 18:40:00,
2013-07-16 13:50:00,92.0,71.3,22.51,SW,224,5.0,5.0,51,0.00,,,0.00,744,Wunderground v.1.15,2013-07-16 18:50:00,
2013-07-16 13:55:00,91.4,70.7,22.51,ESE,123,4.0,5.0,51,0.00,,,0.00,722,Wunderground v.1.15,2013-07-16 18:55:00,
2013-07-16 14:05:00,91.1,69.9,22.51,SW,235,3.0,9.0,50,0.00,,,0.00,754,Wunderground v.1.15,2013-07-16 19:05:00,
2013-07-16 14:10:00,92.0,68.9,22.51,SW,222,4.0,4.0,47,0.00,,,0.00,744,Wunderground v.1.15,2013-07-16 19:10:00,
2013-07-16 14:20:00,92.9,69.7,22.51,SSW,210,3.0,4.0,47,0.00,,,0.00,795,Wunderground v.1.15,2013-07-16 19:20:00,
2013-07-16 14:30:00,91.6,69.7,22.51,SE,142,2.0,2.0,49,0.00,,,0.00,773,Wunderground v.1.15,2013-07-16 19:30:00,
2013-07-16 14:35:00,92.2,69.1,22.51,SW,219,3.0,8.0,47,0.00,,,0.00,749,Wunderground v.1.15,2013-07-16 19:35:00,
2013-07-16 14:45:00,93.1,69.9,22.51,SW,231,5.0,5.0,47,0.00,,,0.00,714,Wunderground v.1.15,2013-07-16 19:45:00,
2013-07-16 14:55:00,92.4,69.9,22.51,SSW,200,3.0,5.0,48,0.00,,,0.00,735,Wunderground v.1.15,2013-07-16 19:55:00,
2013-07-16 15:00:00,92.1,69.6,22.51,SSW,201,3.0,3.0,48,0.00,,,0.00,759,Wunderground v.1.15,2013-07-16 20:00:00,
2013-07-16 15:10:00,92.8,70.2,22.51,SSW,209,2.0,2.0,48,0.00,,,0.00,775,Wunderground v.1.15,2013-07-16 20:10:00,
2013-07-16 15:20:00,91.0,69.8,22.51,SSE,155,1.0,1.0,50,0.00,,,0.00,160,Wunderground v.1.15,2013-07-16 20:20:00,
2013-07-16 15:30:00,91.3,70.6,22.51,South,189,1.0,1.0,51,0.00,,,0.00,299,Wunderground v.1.15,2013-07-16 20:30:00,
2013-07-16 15:35:00,90.8,69.6,22.51,SSE,157,1.0,3.0,50,0.00,,,0.00,146,Wunderground v.1.15,2013-07-16 20:35:00,
2013-07-16 15:40:00,89.8,69.3,22.51,SSE,157,1.0,1.0,51,0.00,,,0.00,146,Wunderground v.1.15,2013-07-16 20:40:00,
2013-07-16 15:50:00,89.6,69.6,22.51,SE,140,1.0,2.0,52,0.00,,,0.00,693,Wunderground v.1.15,2013-07-16 20:50:00,
2013-07-16 16:00:00,91.4,70.7,22.51,SE,130,2.0,2.0,51,0.00,,,0.00,659,Wunderground v.1.15,2013-07-16 21:00:00,
2013-07-16 16:05:00,91.0,70.4,22.51,SE,144,2.0,2.0,51,0.00,,,0.00,640,Wunderground v.1.15,2013-07-16 21:05:00,
2013-07-16 16:15:00,91.3,69.5,22.51,East,101,2.0,3.0,49,0.00,,,0.00,575,Wunderground v.1.15,2013-07-16 21:15:00,
2013-07-16 16:20:00,91.6,69.7,22.51,SSW,196,1.0,2.0,49,0.00,,,0.00,547,Wunderground v.1.15,2013-07-16 21:20:00,
2013-07-16 16:30:00,92.0,68.9,32.02,NE,46,1.0,2.0,47,0.00,,,0.00,557,Wunderground v.1.15,2013-07-16 21:30:00,
2013-07-16 16:35:00,92.0,68.3,32.02,ENE,69,2.0,2.0,46,0.00,,,0.00,563,Wunderground v.1.15,2013-07-16 21:35:00,
2013-07-16 16:45:00,92.7,70.7,32.02,North,5,1.0,1.0,49,0.00,,,0.00,578,Wunderground v.1.15,2013-07-16 21:45:00,
2013-07-16 16:50:00,92.9,69.7,32.02,ESE,123,1.0,1.0,47,0.00,,,0.00,566,Wunderground v.1.15,2013-07-16 21:50:00,
2013-07-16 17:00:00,91.7,69.8,32.02,SE,133,3.0,3.0,49,0.00,,,0.00,153,Wunderground v.1.15,2013-07-16 22:00:00,
2013-07-16 17:10:00,90.8,69.6,32.02,ESE,123,2.0,2.0,50,0.00,,,0.00,132,Wunderground v.1.15,2013-07-16 22:10:00,
2013-07-16 17:15:00,90.4,69.8,32.02,ENE,58,1.0,3.0,51,0.00,,,0.00,98,Wunderground v.1.15,2013-07-16 22:15:00,
2013-07-16 17:25:00,91.4,69.0,32.02,SE,129,2.0,2.0,48,0.00,,,0.00,399,Wunderground v.1.15,2013-07-16 22:25:00,
2013-07-16 17:30:00,91.8,70.5,32.02,ENE,74,1.0,1.0,50,0.00,,,0.00,399,Wunderground v.1.15,2013-07-16 22:30:00,
2013-07-16 17:40:00,91.9,70.0,32.02,SE,140,1.0,1.0,49,0.00,,,0.00,378,Wunderground v.1.15,2013-07-16 22:40:00,
2013-07-16 17:50:00,92.4,69.9,32.02,SE,136,1.0,1.0,48,0.00,,,0.00,429,Wunderground v.1.15,2013-07-16 22:50:00,
2013-07-16 17:55:00,92.4,71.1,32.02,SSE,166,1.0,1.0,50,0.00,,,0.00,427,Wunderground v.1.15,2013-07-16 22:55:00,
2013-07-16 18:05:00,92.0,70.7,32.02,East,89,1.0,3.0,50,0.00,,,0.00,281,Wunderground v.1.15,2013-07-16 23:05:00,
2013-07-16 18:10:00,91.4,69.6,32.02,ESE,106,2.0,2.0,49,0.00,,,0.00,62,Wunderground v.1.15,2013-07-16 23:10:00,
2013-07-16 18:20:00,90.0,69.4,32.02,ENE,78,2.0,2.0,51,0.00,,,0.00,42,Wunderground v.1.15,2013-07-16 23:20:00,
2013-07-16 18:30:00,89.4,70.0,32.02,East,98,0.0,0.0,53,0.00,,,0.00,42,Wunderground v.1.15,2013-07-16 23:30:00,
2013-07-16 18:35:00,89.3,69.4,32.02,East,97,0.0,0.0,52,0.00,,,0.00,40,Wunderground v.1.15,2013-07-16 23:35:00,
2013-07-16 18:45:00,89.1,70.3,32.02,East,97,0.0,0.0,54,0.00,,,0.00,46,Wunderground v.1.15,2013-07-16 23:45:00,
2013-07-16 18:50:00,89.1,70.8,32.02,East,97,0.0,0.0,55,0.00,,,0.00,56,Wunderground v.1.15,2013-07-16 23:50:00,
2013-07-16 19:00:00,87.9,70.8,32.02,East,97,0.0,0.0,57,0.00,,,0.00,51,Wunderground v.1.15,2013-07-17 00:00:00,
2013-07-16 19:10:00,88.1,71.5,32.02,East,97,0.0,0.0,58,0.00,,,0.00,53,Wunderground v.1.15,2013-07-17 00:10:00,
2013-07-16 19:20:00,87.2,70.6,32.02,East,97,0.0,0.0,58,0.00,,,0.00,47,Wunderground v.1.15,2013-07-17 00:20:00,
2013-07-16 19:30:00,87.5,71.4,32.02,East,97,0.0,0.0,59,0.00,,,0.00,37,Wunderground v.1.15,2013-07-17 00:30:00,
2013-07-16 19:35:00,87.7,70.1,32.02,East,97,0.0,0.0,56,0.00,,,0.00,28,Wunderground v.1.15,2013-07-17 00:35:00,
2013-07-16 19:45:00,87.7,70.6,32.02,SE,130,0.0,0.0,57,0.00,,,0.00,28,Wunderground v.1.15,2013-07-17 00:45:00,
2013-07-16 19:55:00,87.3,71.2,32.02,SSW,204,1.0,2.0,59,0.00,,,0.00,28,Wunderground v.1.15,2013-07-17 00:55:00,
2013-07-16 20:05:00,86.9,70.3,32.02,SSE,167,1.0,1.0,58,0.00,,,0.00,18,Wunderground v.1.15,2013-07-17 01:05:00,
2013-07-16 20:10:00,86.8,70.2,32.02,SSE,161,1.0,1.0,58,0.00,,,0.00,11,Wunderground v.1.15,2013-07-17 01:10:00,
2013-07-16 20:20:00,86.3,69.8,32.02,SE,146,1.0,1.0,58,0.00,,,0.00,7,Wunderground v.1.15,2013-07-17 01:20:00,
2013-07-16 20:30:00,86.0,69.5,32.02,SE,143,1.0,1.0,58,0.00,,,0.00,0,Wunderground v.1.15,2013-07-17 01:30:00,
2013-07-16 20:35:00,85.7,69.7,32.02,SSE,153,1.0,1.0,59,0.00,,,0.00,0,Wunderground v.1.15,2013-07-17 01:35:00,
2013-07-16 20:45:00,85.2,69.7,32.02,SSE,153,0.0,2.0,60,0.00,,,0.00,0,Wunderground v.1.15,2013-07-17 01:45:00,
2013-07-16 20:55:00,84.8,69.9,32.02,SSE,153,0.0,1.0,61,0.00,,,0.00,0,Wunderground v.1.15,2013-07-17 01:55:00,
2013-07-16 21:00:00,84.6,69.7,32.02,SSE,153,0.0,0.0,61,0.00,,,0.00,0,Wunderground v.1.15,2013-07-17 02:00:00,
2013-07-16 21:10:00,84.3,69.4,32.02,SSE,155,0.0,1.0,61,0.00,,,0.00,0,Wunderground v.1.15,2013-07-17 02:10:00,
2013-07-16 21:20:00,84.1,69.7,32.02,SSE,150,1.0,2.0,62,0.00,,,0.00,0,Wunderground v.1.15,2013-07-17 02:20:00,
2013-07-16 21:30:00,83.6,69.7,32.02,SSE,150,1.0,1.0,63,0.00,,,0.00,0,Wunderground v.1.15,2013-07-17 02:30:00,
2013-07-16 21:35:00,83.2,69.8,32.02,SSE,150,0.0,1.0,64,0.00,,,0.00,0,Wunderground v.1.15,2013-07-17 02:35:00,
2013-07-16 21:45:00,82.7,69.7,32.02,SSE,150,1.0,1.0,65,0.00,,,0.00,0,Wunderground v.1.15,2013-07-17 02:45:00,
2013-07-16 21:55:00,82.3,70.2,32.02,SSE,150,1.0,1.0,67,0.00,,,0.00,0,Wunderground v.1.15,2013-07-17 02:55:00,
2013-07-16 22:00:00,82.1,70.1,32.02,SSE,150,1.0,1.0,67,0.00,,,0.00,0,Wunderground v.1.15,2013-07-17 03:00:00,
2013-07-16 22:10:00,81.7,70.1,32.02,SSE,150,0.0,0.0,68,0.00,,,0.00,0,Wunderground v.1.15,2013-07-17 03:10:00,
2013-07-16 22:20:00,81.4,70.2,32.02,SSE,150,0.0,0.0,69,0.00,,,0.00,0,Wunderground v.1.15,2013-07-17 03:20:00,
2013-07-16 22:30:00,81.3,70.6,32.02,SSE,150,0.0,0.0,70,0.00,,,0.00,0,Wunderground v.1.15,2013-07-17 03:30:00,
2013-07-16 22:35:00,81.2,70.5,32.02,SSE,150,0.0,0.0,70,0.00,,,0.00,0,Wunderground v.1.15,2013-07-17 03:35:00,
2013-07-16 22:45:00,80.8,70.5,32.02,SSE,150,0.0,0.0,71,0.00,,,0.00,0,Wunderground v.1.15,2013-07-17 03:45:00,
2013-07-16 22:55:00,80.6,70.7,32.02,SSE,150,0.0,0.0,72,0.00,,,0.00,0,Wunderground v.1.15,2013-07-17 03:55:00,
2013-07-16 23:00:00,80.2,70.8,20.17,SSE,150,0.0,0.0,73,0.00,,,0.00,0,Wunderground v.1.15,2013-07-17 04:00:00,
2013-07-16 23:05:00,79.8,70.4,20.17,SSE,150,0.0,0.0,73,0.00,,,0.00,0,Wunderground v.1.15,2013-07-17 04:05:00,
2013-07-16 23:10:00,79.9,70.5,20.17,SSE,150,0.0,0.0,73,0.00,,,0.00,0,Wunderground v.1.15,2013-07-17 04:10:00,
2013-07-16 23:15:00,80.0,70.6,20.17,SSE,150,0.0,0.0,73,0.00,,,0.00,0,Wunderground v.1.15,2013-07-17 04:15:00,
2013-07-16 23:20:00,80.0,70.6,20.17,SSE,150,0.0,0.0,73,0.00,,,0.00,0,Wunderground v.1.15,2013-07-17 04:20:00,
2013-07-16 23:25:00,80.1,70.7,20.17,SSE,150,0.0,2.0,73,0.00,,,0.00,0,Wunderground v.1.15,2013-07-17 04:25:00,
2013-07-16 23:35:00,79.6,70.6,20.17,SSE,150,0.0,0.0,74,0.00,,,0.00,0,Wunderground v.1.15,2013-07-17 04:35:00,
2013-07-16 23:40:00,79.6,70.6,20.17,SSE,150,0.0,0.0,74,0.00,,,0.00,0,Wunderground v.1.15,2013-07-17 04:40:00,
2013-07-16 23:45:00,79.7,70.7,20.17,SSE,150,0.0,0.0,74,0.00,,,0.00,0,Wunderground v.1.15,2013-07-17 04:45:00,
2013-07-16 23:50:00,79.6,70.6,20.17,SSE,150,0.0,0.0,74,0.00,,,0.00,0,Wunderground v.1.15,2013-07-17 04:50:00,